Tellico Plains, Tennessee
Current Conditions -  °F | °C
As of 12:55 AM on Friday 28 Nov 2014 (Local Time) from KMMI Reporting Station
Overcast Overcast  
Wind Chill: 22°   Ceiling: 3200
Heat Index: 28°   Visibility: 10mi
Dew Point: 19°   Wind: 6mph
Humidity: 69%   Direction: 340°NNW
Pressure: 30.42"   Gusts: NA
Location:  35.36°N, 84.29°W
Report Text: KMMI 280555Z AUTO 34005KT 10SM OVC032 M02/M07 A3042 RMK
Loading
Personal Weather Stations






























Interactive Weather Map New forecast layout! Learn more

10-Day Weather Forecast

Advertisements
Track Severe Weather on mobile